Ameagle, West Virginia
Current Conditions -  °F | °C
As of 7:51 AM on Saturday 25 Oct 2014 (Local Time) from KBKW Reporting Station
Clear Clear  
Wind Chill: 36°   Ceiling: Unl
Heat Index: 39°   Visibility: 10mi
Dew Point: 36°   Wind: 5mph
Humidity: 89%   Direction: 200°SSW
Pressure: 30.06"   Gusts: NA
Location:  37.95°N, 81.42°W
Report Text: KBKW 251151Z AUTO 20004KT 10SM CLR 04/02 A3006 RMK AO2 SLP189 T00390022 10044 20028 50002 TSNO
Loading
Personal Weather Stations






























Interactive Weather Map
Tropical Storm Tracking
New forecast layout! Learn more

10-Day Weather Forecast

Advertisements
Track Severe Weather on mobile